For GOD so loved the world that HE gave HIS one and only SON, that whoever believes in HIM shall not perish but have eternal life.


Thunder radar more information blitzortung!


Rain radar more information rain snow radar



Weather Underground History page Text

Daily Summary for April 22, 2018 Units:  English    Metric   Both
« Previous Day
Next Day »
Daily Weekly Monthly Yearly Custom
  Current: High: Low: Average:
Temperature: 62.4 °F TemperatureF °F 29.4 °F 43.7 °F
Dew Point: 25.1 °F DewpointF °F 22.2 °F 27.7 °F
Humidity: 24 % Humidity % 24 % 61 %
Wind Speed: 6.0 mph WindSpeedMPH mph 0.0 mph 1.2 mph
Wind Gust: 9.2 mph WindSpeedGustMPH mph - -
Wind:East - - SE
Pressure: 30.38 in PressureIn in 30.38 in -
Precipitation: 0.00 in      
Historical Graphs
 
 
Tabular Data for April 22, 2018
Time Temperature Dew Point Pressure Wind Wind Speed Wind Gust Humidity Rainfall Rate (Hourly)
TemperatureF °F DewpointF °F PressureIn in Calm     Humidity % HourlyPrecipIn in
00:02 31.9 °F 27.9 °F 30.44 in Calm     85 % 0.00 in
00:07 32.0 °F 28.3 °F 30.44 in Calm     86 % 0.00 in
00:12 31.9 °F 28.2 °F 30.44 in Calm     86 % 0.00 in
00:17 31.6 °F 27.9 °F 30.44 in Calm     86 % 0.00 in
00:22 31.5 °F 27.8 °F 30.44 in Calm     86 % 0.00 in
00:27 31.3 °F 27.6 °F 30.44 in Calm     86 % 0.00 in
00:32 31.2 °F 27.8 °F 30.44 in Calm     87 % 0.00 in
00:33 31.2 °F 27.8 °F 30.44 in Calm     87 % 0.00 in
00:38 31.2 °F 27.8 °F 30.44 in Calm     87 % 0.00 in
00:43 31.1 °F 28.0 °F 30.44 in Calm     88 % 0.00 in
00:48 31.1 °F 28.0 °F 30.44 in Calm     88 % 0.00 in
00:53 31.0 °F 27.9 °F 30.44 in Calm     88 % 0.00 in
00:58 30.8 °F 27.7 °F 30.44 in Calm     88 % 0.00 in
01:03 30.8 °F 27.7 °F 30.44 in Calm     88 % 0.00 in
01:08 30.9 °F 27.8 °F 30.44 in Calm     88 % 0.00 in
01:13 31.1 °F 28.2 °F 30.45 in Calm     89 % 0.00 in
01:18 30.9 °F 28.0 °F 30.44 in Calm     89 % 0.00 in
01:23 30.9 °F 28.0 °F 30.44 in Calm     89 % 0.00 in
01:25 30.9 °F 28.0 °F 30.44 in Calm     89 % 0.00 in
01:30 30.9 °F 28.0 °F 30.44 in Calm     89 % 0.00 in
01:35 31.1 °F 28.2 °F 30.44 in Calm     89 % 0.00 in
01:40 31.5 °F 28.6 °F 30.44 in Calm     89 % 0.00 in
01:45 31.6 °F 28.7 °F 30.44 in Calm     89 % 0.00 in
01:50 31.5 °F 28.6 °F 30.44 in Calm     89 % 0.00 in
01:55 31.3 °F 28.4 °F 30.44 in Calm     89 % 0.00 in
02:00 31.0 °F 27.9 °F 30.44 in Calm     88 % 0.00 in
02:05 30.6 °F 27.5 °F 30.44 in Calm     88 % 0.00 in
02:10 30.6 °F 27.7 °F 30.44 in Calm     89 % 0.00 in
02:15 30.6 °F 27.7 °F 30.44 in Calm     89 % 0.00 in
02:20 30.4 °F 27.5 °F 30.44 in Calm     89 % 0.00 in
02:25 30.4 °F 27.5 °F 30.44 in Calm     89 % 0.00 in
02:30 30.3 °F 27.4 °F 30.44 in Calm     89 % 0.00 in
02:35 30.6 °F 27.7 °F 30.44 in Calm     89 % 0.00 in
02:40 30.9 °F 28.0 °F 30.44 in Calm     89 % 0.00 in
02:45 30.8 °F 27.9 °F 30.44 in Calm     89 % 0.00 in
02:50 30.7 °F 27.8 °F 30.44 in Calm     89 % 0.00 in
02:55 30.6 °F 27.7 °F 30.44 in Calm     89 % 0.00 in
03:00 30.6 °F 27.7 °F 30.44 in Calm     89 % 0.00 in
03:05 31.0 °F 28.1 °F 30.43 in Calm   1.2 mph 89 % 0.00 in
03:10 31.1 °F 28.2 °F 30.43 in Calm     89 % 0.00 in
03:15 30.9 °F 27.8 °F 30.43 in Calm     88 % 0.00 in
03:20 30.7 °F 27.6 °F 30.43 in Calm     88 % 0.00 in
03:25 30.6 °F 27.5 °F 30.43 in Calm     88 % 0.00 in
03:30 30.5 °F 27.4 °F 30.43 in Calm     88 % 0.00 in
03:35 30.7 °F 27.8 °F 30.43 in Calm     89 % 0.00 in
03:40 30.7 °F 27.6 °F 30.43 in Calm     88 % 0.00 in
03:45 30.8 °F 27.7 °F 30.43 in Calm     88 % 0.00 in
03:50 30.8 °F 27.7 °F 30.43 in Calm     88 % 0.00 in
03:55 30.8 °F 27.7 °F 30.43 in Calm     88 % 0.00 in
04:00 30.9 °F 27.8 °F 30.43 in Calm     88 % 0.00 in
04:05 30.9 °F 27.8 °F 30.43 in Calm     88 % 0.00 in
04:08 30.7 °F 27.6 °F 30.43 in Calm     88 % 0.00 in
04:13 30.9 °F 27.8 °F 30.43 in Calm     88 % 0.00 in
04:18 30.7 °F 27.6 °F 30.43 in Calm     88 % 0.00 in
04:23 30.7 °F 27.6 °F 30.43 in Calm     88 % 0.00 in
04:28 30.6 °F 27.5 °F 30.43 in Calm     88 % 0.00 in
04:33 30.6 °F 27.5 °F 30.43 in Calm     88 % 0.00 in
04:38 30.3 °F 27.2 °F 30.43 in Calm     88 % 0.00 in
04:43 30.2 °F 27.1 °F 30.43 in Calm     88 % 0.00 in
04:48 30.2 °F 27.1 °F 30.43 in Calm     88 % 0.00 in
04:53 30.1 °F 27.0 °F 30.43 in Calm     88 % 0.00 in
04:58 30.0 °F 27.2 °F 30.43 in Calm     89 % 0.00 in
05:03 30.0 °F 27.2 °F 30.43 in Calm     89 % 0.00 in
05:08 30.1 °F 27.3 °F 30.43 in Calm     89 % 0.00 in
05:13 30.1 °F 27.3 °F 30.43 in Calm     89 % 0.00 in
05:18 29.8 °F 26.7 °F 30.43 in Calm     88 % 0.00 in
05:23 29.5 °F 26.7 °F 30.43 in Calm     89 % 0.00 in
05:28 29.4 °F 26.6 °F 30.44 in West 0.4 mph   89 % 0.00 in
05:33 30.2 °F 27.3 °F 30.43 in West 0.4 mph 2.3 mph 89 % 0.00 in
05:38 30.6 °F 27.7 °F 30.44 in Calm   1.0 mph 89 % 0.00 in
05:43 31.0 °F 27.9 °F 30.44 in West 0.5 mph 2.3 mph 88 % 0.00 in
05:48 31.2 °F 28.1 °F 30.44 in Calm     88 % 0.00 in
05:53 31.3 °F 27.9 °F 30.44 in SE 0.1 mph 1.2 mph 87 % 0.00 in
05:58 31.5 °F 28.1 °F 30.44 in Calm     87 % 0.00 in
06:03 31.6 °F 27.9 °F 30.44 in SE 0.5 mph 2.3 mph 86 % 0.00 in
06:08 31.7 °F 28.0 °F 30.44 in Calm     86 % 0.00 in
06:13 31.6 °F 27.6 °F 30.44 in Calm     85 % 0.00 in
06:18 30.8 °F 26.5 °F 30.44 in Calm     84 % 0.00 in
06:23 30.2 °F 26.2 °F 30.44 in Calm     85 % 0.00 in
06:28 29.9 °F 26.2 °F 30.44 in Calm     86 % 0.00 in
06:33 30.1 °F 26.7 °F 30.44 in Calm     87 % 0.00 in
06:38 30.3 °F 26.9 °F 30.44 in Calm     87 % 0.00 in
06:43 30.3 °F 26.9 °F 30.44 in Calm     87 % 0.00 in
06:48 30.3 °F 26.9 °F 30.45 in Calm     87 % 0.00 in
06:53 31.1 °F 27.7 °F 30.45 in SE 0.4 mph 1.2 mph 87 % 0.00 in
06:58 31.9 °F 28.5 °F 30.45 in SE 0.1 mph 2.3 mph 87 % 0.00 in
07:03 32.6 °F 28.6 °F 30.45 in SSE 1.0 mph 3.5 mph 85 % 0.00 in
07:08 33.2 °F 28.6 °F 30.45 in SE 1.2 mph 3.5 mph 83 % 0.00 in
07:13 33.8 °F 28.9 °F 30.45 in SE 0.9 mph 2.3 mph 82 % 0.00 in
07:18 34.3 °F 29.1 °F 30.45 in Calm   3.5 mph 81 % 0.00 in
07:23 34.6 °F 29.1 °F 30.45 in Calm     80 % 0.00 in
07:28 34.8 °F 29.3 °F 30.45 in Calm     80 % 0.00 in
07:33 35.1 °F 29.2 °F 30.45 in Calm     79 % 0.00 in
07:38 35.8 °F 29.6 °F 30.45 in SE 0.3 mph 2.3 mph 78 % 0.00 in
07:43 36.4 °F 29.9 °F 30.45 in Calm     77 % 0.00 in
07:48 37.0 °F 30.5 °F 30.46 in Calm     77 % 0.00 in
07:53 37.9 °F 31.0 °F 30.46 in SSE 1.8 mph 2.3 mph 76 % 0.00 in
07:58 38.8 °F 30.9 °F 30.46 in SSE 0.7 mph 2.3 mph 73 % 0.00 in
08:03 39.4 °F 31.1 °F 30.46 in SSE 0.6 mph 2.3 mph 72 % 0.00 in
08:08 39.9 °F 31.6 °F 30.47 in Calm   1.2 mph 72 % 0.00 in
08:13 40.3 °F 32.0 °F 30.47 in SE 0.2 mph 1.2 mph 72 % 0.00 in
08:18 40.6 °F 32.3 °F 30.47 in Calm   1.2 mph 72 % 0.00 in
08:23 41.2 °F 32.9 °F 30.47 in Calm     72 % 0.00 in
08:28 41.9 °F 32.5 °F 30.47 in Calm   1.2 mph 69 % 0.00 in
08:33 42.8 °F 33.7 °F 30.48 in SE 0.2 mph 1.2 mph 70 % 0.00 in
08:38 43.4 °F 33.9 °F 30.47 in SE 0.1 mph 1.2 mph 69 % 0.00 in
08:43 44.6 °F 34.3 °F 30.48 in SE 0.7 mph 1.2 mph 67 % 0.00 in
08:48 44.9 °F 33.5 °F 30.48 in SE 0.3 mph 1.2 mph 64 % 0.00 in
08:53 45.6 °F 34.1 °F 30.48 in Calm   1.0 mph 64 % 0.00 in
08:58 46.1 °F 34.6 °F 30.48 in SE 0.8 mph 1.2 mph 64 % 0.00 in
09:03 46.5 °F 33.8 °F 30.48 in Calm     61 % 0.00 in
09:08 47.2 °F 33.6 °F 30.48 in SE 0.1 mph 2.3 mph 59 % 0.00 in
09:13 48.2 °F 34.5 °F 30.48 in Calm     59 % 0.00 in
09:18 48.8 °F 32.9 °F 30.48 in Calm   3.5 mph 54 % 0.00 in
09:23 49.4 °F 32.5 °F 30.47 in SE 0.3 mph 1.2 mph 52 % 0.00 in
09:28 49.8 °F 31.9 °F 30.47 in ESE 0.6 mph 2.0 mph 50 % 0.00 in
09:33 50.1 °F 31.7 °F 30.47 in Calm     49 % 0.00 in
09:38 50.9 °F 29.2 °F 30.48 in ESE 0.9 mph 1.2 mph 43 % 0.00 in
09:43 51.1 °F 29.4 °F 30.48 in Calm   1.2 mph 43 % 0.00 in
09:48 51.3 °F 29.5 °F 30.48 in NNE 1.0 mph 3.5 mph 43 % 0.00 in
09:53 51.8 °F 30.0 °F 30.48 in NNE 2.1 mph 3.5 mph 43 % 0.00 in
09:58 52.4 °F 30.0 °F 30.48 in NNE 1.5 mph 2.3 mph 42 % 0.00 in
10:03 53.0 °F 30.5 °F 30.48 in NNE 1.5 mph 2.3 mph 42 % 0.00 in
10:08 53.3 °F 29.6 °F 30.48 in Calm   2.3 mph 40 % 0.00 in
10:13 53.5 °F 27.2 °F 30.48 in NNE 1.0 mph 2.3 mph 36 % 0.00 in
10:18 53.4 °F 26.4 °F 30.48 in NNE 1.3 mph 3.5 mph 35 % 0.00 in
10:23 53.7 °F 25.2 °F 30.48 in NNE 1.0 mph 3.5 mph 33 % 0.00 in
10:28 54.1 °F 25.6 °F 30.48 in NNW 2.0 mph 4.6 mph 33 % 0.00 in
10:33 54.9 °F 27.7 °F 30.48 in NNW 0.8 mph 1.2 mph 35 % 0.00 in
10:38 55.3 °F 28.1 °F 30.48 in NNW 1.0 mph 2.3 mph 35 % 0.00 in
10:43 55.6 °F 26.2 °F 30.48 in NNW 2.3 mph 3.5 mph 32 % 0.00 in
10:48 56.1 °F 25.8 °F 30.48 in NNE 2.9 mph 4.6 mph 31 % 0.00 in
10:53 55.3 °F 23.5 °F 30.47 in North 3.2 mph 3.5 mph 29 % 0.00 in
10:58 55.6 °F 23.8 °F 30.47 in NNW 0.2 mph 1.2 mph 29 % 0.00 in
11:03 56.2 °F 24.3 °F 30.48 in NE 3.4 mph 4.0 mph 29 % 0.00 in
11:08 56.4 °F 24.5 °F 30.48 in ENE 1.6 mph 2.3 mph 29 % 0.00 in
11:13 56.5 °F 28.4 °F 30.47 in North 1.6 mph 3.0 mph 34 % 0.00 in
11:18 56.8 °F 23.1 °F 30.47 in NNE 2.1 mph 6.9 mph 27 % 0.00 in
11:23 56.7 °F 22.2 °F 30.47 in NNW 0.3 mph 4.6 mph 26 % 0.00 in
11:28 57.6 °F 29.4 °F 30.47 in North 3.6 mph 5.0 mph 34 % 0.00 in
11:33 57.7 °F 28.0 °F 30.47 in North 3.8 mph 5.8 mph 32 % 0.00 in
11:38 57.6 °F 26.4 °F 30.47 in East 2.6 mph 5.0 mph 30 % 0.00 in
11:43 57.4 °F 22.8 °F 30.46 in NNE 0.2 mph 4.6 mph 26 % 0.00 in
11:48 58.1 °F 26.0 °F 30.46 in NNW 3.6 mph 4.6 mph 29 % 0.00 in
11:53 58.3 °F 28.5 °F 30.46 in ENE 1.8 mph 3.5 mph 32 % 0.00 in
11:58 58.8 °F 26.6 °F 30.46 in NE 1.6 mph 4.6 mph 29 % 0.00 in
12:03 58.9 °F 24.9 °F 30.45 in NE 2.8 mph 4.6 mph 27 % 0.00 in
12:04 58.9 °F 24.9 °F 30.45 in NE 2.5 mph 3.5 mph 27 % 0.00 in
12:09 58.2 °F 23.4 °F 30.45 in North 2.4 mph 3.5 mph 26 % 0.00 in
12:14 58.1 °F 23.3 °F 30.45 in NE 4.6 mph 5.8 mph 26 % 0.00 in
12:19 59.0 °F 25.9 °F 30.45 in North 2.6 mph 3.5 mph 28 % 0.00 in
12:24 58.5 °F 22.8 °F 30.45 in SE 1.4 mph 3.5 mph 25 % 0.00 in
12:29 58.7 °F 27.3 °F 30.45 in ENE 0.2 mph 2.3 mph 30 % 0.00 in
12:34 59.3 °F 26.2 °F 30.45 in SE 4.9 mph 6.9 mph 28 % 0.00 in
12:39 58.9 °F 25.8 °F 30.45 in SW 2.1 mph 3.5 mph 28 % 0.00 in
12:44 59.2 °F 26.9 °F 30.44 in NNW 0.3 mph 3.0 mph 29 % 0.00 in
12:49 59.2 °F 25.2 °F 30.44 in East 1.0 mph 3.5 mph 27 % 0.00 in
12:54 59.5 °F 29.6 °F 30.44 in NE 3.9 mph 9.2 mph 32 % 0.00 in
12:59 59.9 °F 25.8 °F 30.44 in ENE 4.5 mph 8.1 mph 27 % 0.00 in
13:04 59.5 °F 26.3 °F 30.44 in SE 2.6 mph 5.0 mph 28 % 0.00 in
13:09 59.1 °F 26.0 °F 30.44 in NNW 6.1 mph 8.1 mph 28 % 0.00 in
13:14 59.7 °F 29.8 °F 30.44 in North 2.7 mph 5.8 mph 32 % 0.00 in
13:19 60.3 °F 25.2 °F 30.43 in NE 2.7 mph 5.0 mph 26 % 0.00 in
13:24 60.6 °F 27.3 °F 30.43 in NNW 3.2 mph 3.5 mph 28 % 0.00 in
13:29 59.7 °F 25.6 °F 30.43 in ENE 0.5 mph 2.3 mph 27 % 0.00 in
13:34 60.3 °F 26.1 °F 30.43 in ENE 1.4 mph 3.0 mph 27 % 0.00 in
13:38 60.8 °F 27.5 °F 30.43 in NNE 3.8 mph 5.8 mph 28 % 0.00 in
13:43 60.2 °F 25.1 °F 30.43 in NW 5.9 mph 10.4 mph 26 % 0.00 in
13:48 60.7 °F 29.9 °F 30.42 in NNE 5.5 mph 8.1 mph 31 % 0.00 in
13:53 61.0 °F 25.8 °F 30.42 in North 2.9 mph 3.5 mph 26 % 0.00 in
13:58 61.5 °F 30.6 °F 30.42 in NNE 2.4 mph 5.0 mph 31 % 0.00 in
14:03 60.9 °F 27.5 °F 30.42 in NNW 3.9 mph 9.2 mph 28 % 0.00 in
14:08 60.5 °F 25.4 °F 30.42 in NNW 0.9 mph 5.8 mph 26 % 0.00 in
14:13 60.5 °F 25.4 °F 30.42 in ENE 2.1 mph 3.5 mph 26 % 0.00 in
14:18 61.5 °F 26.3 °F 30.42 in ENE 3.2 mph 4.6 mph 26 % 0.00 in
14:23 61.6 °F 27.3 °F 30.42 in NNE 2.0 mph 3.5 mph 27 % 0.00 in
14:28 61.0 °F 24.9 °F 30.41 in ESE 1.6 mph 2.3 mph 25 % 0.00 in
14:33 61.5 °F 26.3 °F 30.41 in NNW 2.5 mph 5.0 mph 26 % 0.00 in
14:38 61.7 °F 27.3 °F 30.41 in NE 4.7 mph 9.2 mph 27 % 0.00 in
14:43 61.3 °F 24.2 °F 30.41 in ENE 2.5 mph 8.1 mph 24 % 0.00 in
14:48 61.8 °F 29.2 °F 30.41 in NNE 3.7 mph 6.9 mph 29 % 0.00 in
14:53 61.5 °F 26.3 °F 30.41 in NE 5.3 mph 9.2 mph 26 % 0.00 in
14:58 61.3 °F 25.1 °F 30.41 in NNE 6.7 mph 9.2 mph 25 % 0.00 in
15:03 61.5 °F 25.3 °F 30.41 in NNW 4.3 mph 8.1 mph 25 % 0.00 in
15:08 61.9 °F 25.7 °F 30.41 in NNE 3.4 mph 6.9 mph 25 % 0.00 in
15:13 62.4 °F 27.0 °F 30.41 in NNW 4.9 mph 9.2 mph 26 % 0.00 in
15:18 61.2 °F 25.1 °F 30.40 in NW 3.8 mph 4.6 mph 25 % 0.00 in
15:23 61.6 °F 26.3 °F 30.40 in NW 3.1 mph 4.6 mph 26 % 0.00 in
15:28 62.9 °F 30.1 °F 30.40 in NNE 4.1 mph 8.0 mph 29 % 0.00 in
15:33 62.5 °F 27.1 °F 30.40 in ENE 4.7 mph 8.0 mph 26 % 0.00 in
15:38 62.1 °F 31.1 °F 30.40 in North 2.4 mph 5.0 mph 31 % 0.00 in
15:43 62.6 °F 28.1 °F 30.40 in NNW 3.6 mph 6.9 mph 27 % 0.00 in
15:48 62.9 °F 26.5 °F 30.39 in NE 4.2 mph 4.6 mph 25 % 0.00 in
15:53 62.2 °F 27.8 °F 30.39 in North 2.9 mph 4.6 mph 27 % 0.00 in
15:58 62.5 °F 28.0 °F 30.39 in ENE 4.2 mph 8.0 mph 27 % 0.00 in
16:03 62.6 °F 27.2 °F 30.39 in NNW 4.4 mph 5.0 mph 26 % 0.00 in
16:08 62.2 °F 28.7 °F 30.38 in East 3.5 mph 10.0 mph 28 % 0.00 in
16:13 62.5 °F 29.8 °F 30.38 in NE 4.7 mph 10.4 mph 29 % 0.00 in
16:18 62.4 °F 25.1 °F 30.38 in East 6.0 mph 9.2 mph 24 % 0.00 in
Bullis Road Weather
Compliments of Weather Underground - 3.25 mb

Script developed by  Jim McMurry - jmcmurry@mwt.net Adapted for the template by  Wim van der Kuil - Leuven-Template.eu